KFSI/FSI METAR and TAF weather

Enter ICAO airport designator
Station Type Date Time Source
KFSI METAR 2022/01/26 07:56 UTC NOAA

KFSI 260756Z AUTO 03013KT 10SM CLR M03/M15 A3038 RMK AO2 SLP294 T10301150 $


Station Type Date Time Source
KFSI Decoded METAR 2022/01/26 07:56 UTC NOAA

Fort Sill, OK, United States (KFSI) 34-36N 098-24W 360M
Jan 26, 2022 - 02:56 AM EST / 2022.01.26 0756 UTC
Wind: from the NNE (030 degrees) at 15 MPH (13 KT):0
Visibility: 10 mile(s):0
Sky conditions: clear
Temperature: 26.6 F (-3.0 C)
Windchill: 14 F (-10 C):1
Dew Point: 5.0 F (-15.0 C)
Relative Humidity: 39%
Pressure (altimeter): 30.38 in. Hg (1028 hPa)
ob: KFSI 260756Z AUTO 03013KT 10SM CLR M03/M15 A3038 RMK AO2 SLP294 T10301150
cycle: 8

Station Type Date Time Source
KFSI TAF 2020/11/03 14:12 UTC NOAA

TAF KFSI 031400Z 0314/0420 19009KT 9999 SKC QNH3019INS TX19/0320Z TN04/0410Z

Example: see airport list